sensor_id;sensor_type;location;lat;lon;timestamp;temperature;humidity
3705;DHT22;1868;48.918;9.438;2023-05-14T00:00:47;12.10;97.40
3705;DHT22;1868;48.918;9.438;2023-05-14T00:03:16;12.00;97.40
3705;DHT22;1868;48.918;9.438;2023-05-14T00:05:46;12.00;97.40
3705;DHT22;1868;48.918;9.438;2023-05-14T00:08:15;12.00;97.40
3705;DHT22;1868;48.918;9.438;2023-05-14T00:10:44;12.00;97.40
3705;DHT22;1868;48.918;9.438;2023-05-14T00:13:12;12.00;97.40
3705;DHT22;1868;48.918;9.438;2023-05-14T00:15:41;11.90;97.40
3705;DHT22;1868;48.918;9.438;2023-05-14T00:18:12;11.90;97.40
3705;DHT22;1868;48.918;9.438;2023-05-14T00:20:41;11.90;97.40
3705;DHT22;1868;48.918;9.438;2023-05-14T00:23:10;11.80;97.40
3705;DHT22;1868;48.918;9.438;2023-05-14T00:25:39;11.80;97.40
3705;DHT22;1868;48.918;9.438;2023-05-14T00:28:08;11.70;97.40
3705;DHT22;1868;48.918;9.438;2023-05-14T00:30:37;11.70;97.40
3705;DHT22;1868;48.918;9.438;2023-05-14T00:33:07;11.70;97.40
3705;DHT22;1868;48.918;9.438;2023-05-14T00:35:38;11.60;97.40
3705;DHT22;1868;48.918;9.438;2023-05-14T00:38:06;11.50;97.40
3705;DHT22;1868;48.918;9.438;2023-05-14T00:40:42;11.50;97.40
3705;DHT22;1868;48.918;9.438;2023-05-14T00:43:17;11.40;97.40
3705;DHT22;1868;48.918;9.438;2023-05-14T00:45:47;11.30;97.40
3705;DHT22;1868;48.918;9.438;2023-05-14T00:48:17;11.20;97.40
3705;DHT22;1868;48.918;9.438;2023-05-14T00:50:49;11.10;97.40
3705;DHT22;1868;48.918;9.438;2023-05-14T00:53:19;11.10;97.40
3705;DHT22;1868;48.918;9.438;2023-05-14T00:55:48;11.00;97.40
3705;DHT22;1868;48.918;9.438;2023-05-14T00:58:18;11.00;97.40
3705;DHT22;1868;48.918;9.438;2023-05-14T01:00:48;10.90;97.40
3705;DHT22;1868;48.918;9.438;2023-05-14T01:03:18;10.80;97.40
3705;DHT22;1868;48.918;9.438;2023-05-14T01:05:55;10.80;97.40
3705;DHT22;1868;48.918;9.438;2023-05-14T01:08:33;10.70;97.40
3705;DHT22;1868;48.918;9.438;2023-05-14T01:11:12;10.60;97.40
3705;DHT22;1868;48.918;9.438;2023-05-14T01:13:56;10.60;97.40
3705;DHT22;1868;48.918;9.438;2023-05-14T01:16:32;10.50;97.40
3705;DHT22;1868;48.918;9.438;2023-05-14T01:19:04;10.40;97.40
3705;DHT22;1868;48.918;9.438;2023-05-14T01:21:42;10.40;97.40
3705;DHT22;1868;48.918;9.438;2023-05-14T01:24:11;10.40;97.40
3705;DHT22;1868;48.918;9.438;2023-05-14T01:26:39;10.30;97.40
3705;DHT22;1868;48.918;9.438;2023-05-14T01:29:14;10.20;97.40
3705;DHT22;1868;48.918;9.438;2023-05-14T01:31:47;10.20;97.40
3705;DHT22;1868;48.918;9.438;2023-05-14T01:34:21;10.20;97.40
3705;DHT22;1868;48.918;9.438;2023-05-14T01:36:52;10.10;97.40
3705;DHT22;1868;48.918;9.438;2023-05-14T01:39:24;10.10;97.40
3705;DHT22;1868;48.918;9.438;2023-05-14T01:41:54;10.00;97.40
3705;DHT22;1868;48.918;9.438;2023-05-14T01:44:24;9.90;97.40
3705;DHT22;1868;48.918;9.438;2023-05-14T01:46:53;9.90;97.40
3705;DHT22;1868;48.918;9.438;2023-05-14T01:49:21;9.80;97.40
3705;DHT22;1868;48.918;9.438;2023-05-14T01:51:52;9.80;97.40
3705;DHT22;1868;48.918;9.438;2023-05-14T01:54:20;9.70;97.40
3705;DHT22;1868;48.918;9.438;2023-05-14T01:56:50;9.70;97.40
3705;DHT22;1868;48.918;9.438;2023-05-14T01:59:18;9.70;97.40
3705;DHT22;1868;48.918;9.438;2023-05-14T02:01:47;9.60;97.40
3705;DHT22;1868;48.918;9.438;2023-05-14T02:04:16;9.60;97.40
3705;DHT22;1868;48.918;9.438;2023-05-14T02:06:46;9.60;97.40
3705;DHT22;1868;48.918;9.438;2023-05-14T02:09:16;9.60;97.40
3705;DHT22;1868;48.918;9.438;2023-05-14T02:11:45;9.50;97.40
3705;DHT22;1868;48.918;9.438;2023-05-14T02:14:14;9.50;97.40
3705;DHT22;1868;48.918;9.438;2023-05-14T02:16:42;9.50;97.40
3705;DHT22;1868;48.918;9.438;2023-05-14T02:19:11;9.40;97.40
3705;DHT22;1868;48.918;9.438;2023-05-14T02:21:40;9.40;97.40
3705;DHT22;1868;48.918;9.438;2023-05-14T02:24:08;9.40;97.40
3705;DHT22;1868;48.918;9.438;2023-05-14T02:26:39;9.40;97.40
3705;DHT22;1868;48.918;9.438;2023-05-14T02:29:08;9.30;97.40
3705;DHT22;1868;48.918;9.438;2023-05-14T02:31:37;9.30;97.40
3705;DHT22;1868;48.918;9.438;2023-05-14T02:34:06;9.30;97.40
3705;DHT22;1868;48.918;9.438;2023-05-14T02:36:35;9.30;97.40
3705;DHT22;1868;48.918;9.438;2023-05-14T02:39:03;9.30;97.40
3705;DHT22;1868;48.918;9.438;2023-05-14T02:41:33;9.30;97.40
3705;DHT22;1868;48.918;9.438;2023-05-14T02:44:04;9.30;97.40
3705;DHT22;1868;48.918;9.438;2023-05-14T02:46:34;9.30;97.40
3705;DHT22;1868;48.918;9.438;2023-05-14T02:49:03;9.30;97.40
3705;DHT22;1868;48.918;9.438;2023-05-14T02:51:31;9.30;97.40
3705;DHT22;1868;48.918;9.438;2023-05-14T02:54:00;9.30;97.40
3705;DHT22;1868;48.918;9.438;2023-05-14T02:56:28;9.40;97.40
3705;DHT22;1868;48.918;9.438;2023-05-14T02:58:57;9.40;97.40
3705;DHT22;1868;48.918;9.438;2023-05-14T03:01:28;9.40;97.40
3705;DHT22;1868;48.918;9.438;2023-05-14T03:03:57;9.40;97.40
3705;DHT22;1868;48.918;9.438;2023-05-14T03:06:26;9.40;97.40
3705;DHT22;1868;48.918;9.438;2023-05-14T03:08:55;9.50;97.40
3705;DHT22;1868;48.918;9.438;2023-05-14T03:11:26;9.50;97.40
3705;DHT22;1868;48.918;9.438;2023-05-14T03:13:57;9.60;97.40
3705;DHT22;1868;48.918;9.438;2023-05-14T03:16:27;9.60;97.40
3705;DHT22;1868;48.918;9.438;2023-05-14T03:18:59;9.70;97.40
3705;DHT22;1868;48.918;9.438;2023-05-14T03:21:30;9.80;97.40
3705;DHT22;1868;48.918;9.438;2023-05-14T03:23:59;9.80;97.40
3705;DHT22;1868;48.918;9.438;2023-05-14T03:26:27;9.80;97.40
3705;DHT22;1868;48.918;9.438;2023-05-14T03:28:56;9.90;97.40
3705;DHT22;1868;48.918;9.438;2023-05-14T03:31:25;9.90;97.40
3705;DHT22;1868;48.918;9.438;2023-05-14T03:33:56;10.00;97.40
3705;DHT22;1868;48.918;9.438;2023-05-14T03:36:25;10.00;97.40
3705;DHT22;1868;48.918;9.438;2023-05-14T03:38:54;10.00;97.40
3705;DHT22;1868;48.918;9.438;2023-05-14T03:41:23;10.10;97.40
3705;DHT22;1868;48.918;9.438;2023-05-14T03:43:52;10.10;97.40
3705;DHT22;1868;48.918;9.438;2023-05-14T03:46:21;10.20;97.40
3705;DHT22;1868;48.918;9.438;2023-05-14T03:48:50;10.20;97.40
3705;DHT22;1868;48.918;9.438;2023-05-14T03:51:21;10.20;97.40
3705;DHT22;1868;48.918;9.438;2023-05-14T03:53:50;10.30;97.40
3705;DHT22;1868;48.918;9.438;2023-05-14T03:56:20;10.30;97.40
3705;DHT22;1868;48.918;9.438;2023-05-14T03:58:49;10.40;97.40
3705;DHT22;1868;48.918;9.438;2023-05-14T04:01:18;10.50;97.40
3705;DHT22;1868;48.918;9.438;2023-05-14T04:03:47;10.50;97.40
3705;DHT22;1868;48.918;9.438;2023-05-14T04:06:15;10.50;97.40
3705;DHT22;1868;48.918;9.438;2023-05-14T04:08:46;10.60;97.40
3705;DHT22;1868;48.918;9.438;2023-05-14T04:11:15;10.60;97.40
3705;DHT22;1868;48.918;9.438;2023-05-14T04:13:43;10.60;97.40
3705;DHT22;1868;48.918;9.438;2023-05-14T04:16:12;10.60;97.40
3705;DHT22;1868;48.918;9.438;2023-05-14T04:18:41;10.70;97.40
3705;DHT22;1868;48.918;9.438;2023-05-14T04:21:10;10.70;97.40
3705;DHT22;1868;48.918;9.438;2023-05-14T04:23:39;10.80;97.40
3705;DHT22;1868;48.918;9.438;2023-05-14T04:26:09;10.80;97.40
3705;DHT22;1868;48.918;9.438;2023-05-14T04:28:38;10.80;97.40
3705;DHT22;1868;48.918;9.438;2023-05-14T04:31:06;10.90;97.40
3705;DHT22;1868;48.918;9.438;2023-05-14T04:33:35;10.90;97.40
3705;DHT22;1868;48.918;9.438;2023-05-14T04:36:04;10.90;97.40
3705;DHT22;1868;48.918;9.438;2023-05-14T04:38:34;11.00;97.40
3705;DHT22;1868;48.918;9.438;2023-05-14T04:41:03;11.00;97.40
3705;DHT22;1868;48.918;9.438;2023-05-14T04:43:35;11.00;97.40
3705;DHT22;1868;48.918;9.438;2023-05-14T04:46:04;11.00;97.40
3705;DHT22;1868;48.918;9.438;2023-05-14T04:48:33;11.10;97.40
3705;DHT22;1868;48.918;9.438;2023-05-14T04:51:03;11.20;97.40
3705;DHT22;1868;48.918;9.438;2023-05-14T04:53:33;11.20;97.40
3705;DHT22;1868;48.918;9.438;2023-05-14T04:56:02;11.20;97.40
3705;DHT22;1868;48.918;9.438;2023-05-14T04:58:30;11.30;97.40
3705;DHT22;1868;48.918;9.438;2023-05-14T05:01:03;11.30;97.40
3705;DHT22;1868;48.918;9.438;2023-05-14T05:03:33;11.30;97.40
3705;DHT22;1868;48.918;9.438;2023-05-14T05:06:01;11.40;97.40
3705;DHT22;1868;48.918;9.438;2023-05-14T05:08:31;11.40;97.40
3705;DHT22;1868;48.918;9.438;2023-05-14T05:11:00;11.50;97.40
3705;DHT22;1868;48.918;9.438;2023-05-14T05:13:29;11.60;97.40
3705;DHT22;1868;48.918;9.438;2023-05-14T05:15:58;11.70;97.40
3705;DHT22;1868;48.918;9.438;2023-05-14T05:18:28;11.70;97.40
3705;DHT22;1868;48.918;9.438;2023-05-14T05:20:57;11.80;97.40
3705;DHT22;1868;48.918;9.438;2023-05-14T05:23:25;11.80;97.40
3705;DHT22;1868;48.918;9.438;2023-05-14T05:25:54;11.90;97.40
3705;DHT22;1868;48.918;9.438;2023-05-14T05:28:23;11.90;97.40
3705;DHT22;1868;48.918;9.438;2023-05-14T05:30:52;11.90;97.40
3705;DHT22;1868;48.918;9.438;2023-05-14T05:33:22;11.90;97.40
3705;DHT22;1868;48.918;9.438;2023-05-14T05:35:52;11.90;97.40
3705;DHT22;1868;48.918;9.438;2023-05-14T05:38:21;12.00;97.40
3705;DHT22;1868;48.918;9.438;2023-05-14T05:40:50;12.00;97.40
3705;DHT22;1868;48.918;9.438;2023-05-14T05:43:18;12.10;97.40
3705;DHT22;1868;48.918;9.438;2023-05-14T05:45:47;12.20;97.40
3705;DHT22;1868;48.918;9.438;2023-05-14T05:48:16;12.20;97.40
3705;DHT22;1868;48.918;9.438;2023-05-14T05:50:46;12.30;97.40
3705;DHT22;1868;48.918;9.438;2023-05-14T05:53:16;12.30;97.40
3705;DHT22;1868;48.918;9.438;2023-05-14T05:55:45;12.30;97.40
3705;DHT22;1868;48.918;9.438;2023-05-14T05:58:14;12.40;97.40
3705;DHT22;1868;48.918;9.438;2023-05-14T06:00:43;12.50;97.40
3705;DHT22;1868;48.918;9.438;2023-05-14T06:03:12;12.60;97.40
3705;DHT22;1868;48.918;9.438;2023-05-14T06:05:42;12.60;97.40
3705;DHT22;1868;48.918;9.438;2023-05-14T06:08:10;12.70;97.40
3705;DHT22;1868;48.918;9.438;2023-05-14T06:10:41;12.70;97.40
3705;DHT22;1868;48.918;9.438;2023-05-14T06:13:13;12.80;97.40
3705;DHT22;1868;48.918;9.438;2023-05-14T06:15:42;12.80;97.40
3705;DHT22;1868;48.918;9.438;2023-05-14T06:18:11;12.80;97.40
3705;DHT22;1868;48.918;9.438;2023-05-14T06:20:40;12.90;97.40
3705;DHT22;1868;48.918;9.438;2023-05-14T06:23:08;13.00;97.40
3705;DHT22;1868;48.918;9.438;2023-05-14T06:25:38;13.10;97.40
3705;DHT22;1868;48.918;9.438;2023-05-14T06:28:08;13.20;97.40
3705;DHT22;1868;48.918;9.438;2023-05-14T06:30:37;13.30;97.40
3705;DHT22;1868;48.918;9.438;2023-05-14T06:33:06;13.40;97.40
3705;DHT22;1868;48.918;9.438;2023-05-14T06:35:35;13.50;97.40
3705;DHT22;1868;48.918;9.438;2023-05-14T06:38:03;13.50;97.40
3705;DHT22;1868;48.918;9.438;2023-05-14T06:40:32;13.70;97.40
3705;DHT22;1868;48.918;9.438;2023-05-14T06:43:01;13.80;97.40
3705;DHT22;1868;48.918;9.438;2023-05-14T06:45:34;14.00;97.40
3705;DHT22;1868;48.918;9.438;2023-05-14T06:48:03;14.10;97.40
3705;DHT22;1868;48.918;9.438;2023-05-14T06:50:32;14.20;97.40
3705;DHT22;1868;48.918;9.438;2023-05-14T06:53:02;14.30;97.40
3705;DHT22;1868;48.918;9.438;2023-05-14T06:55:31;14.40;97.40
3705;DHT22;1868;48.918;9.438;2023-05-14T06:58:00;14.60;97.40
3705;DHT22;1868;48.918;9.438;2023-05-14T07:00:30;14.80;97.40
3705;DHT22;1868;48.918;9.438;2023-05-14T07:03:00;15.00;97.40
3705;DHT22;1868;48.918;9.438;2023-05-14T07:05:29;15.10;97.40
3705;DHT22;1868;48.918;9.438;2023-05-14T07:07:57;15.20;97.40
3705;DHT22;1868;48.918;9.438;2023-05-14T07:10:26;15.20;97.40
3705;DHT22;1868;48.918;9.438;2023-05-14T07:12:54;15.20;97.40
3705;DHT22;1868;48.918;9.438;2023-05-14T07:15:23;15.20;97.40
3705;DHT22;1868;48.918;9.438;2023-05-14T07:17:52;15.40;97.40
3705;DHT22;1868;48.918;9.438;2023-05-14T07:20:23;15.50;97.40
3705;DHT22;1868;48.918;9.438;2023-05-14T07:22:52;15.60;97.40
3705;DHT22;1868;48.918;9.438;2023-05-14T07:25:21;15.70;97.40
3705;DHT22;1868;48.918;9.438;2023-05-14T07:27:50;15.80;97.40
3705;DHT22;1868;48.918;9.438;2023-05-14T07:30:19;15.80;97.40
3705;DHT22;1868;48.918;9.438;2023-05-14T07:32:48;15.90;97.40
3705;DHT22;1868;48.918;9.438;2023-05-14T07:35:17;16.00;97.40
3705;DHT22;1868;48.918;9.438;2023-05-14T07:37:47;16.10;97.40
3705;DHT22;1868;48.918;9.438;2023-05-14T07:40:16;16.20;97.40
3705;DHT22;1868;48.918;9.438;2023-05-14T07:42:44;16.30;97.40
3705;DHT22;1868;48.918;9.438;2023-05-14T07:45:13;16.50;97.40
3705;DHT22;1868;48.918;9.438;2023-05-14T07:47:42;16.60;97.40
3705;DHT22;1868;48.918;9.438;2023-05-14T07:50:13;16.90;97.40
3705;DHT22;1868;48.918;9.438;2023-05-14T07:52:43;17.20;97.40
3705;DHT22;1868;48.918;9.438;2023-05-14T07:55:14;17.40;97.40
3705;DHT22;1868;48.918;9.438;2023-05-14T07:57:44;17.60;97.40
3705;DHT22;1868;48.918;9.438;2023-05-14T08:00:13;17.80;97.40
3705;DHT22;1868;48.918;9.438;2023-05-14T08:02:43;18.10;97.40
3705;DHT22;1868;48.918;9.438;2023-05-14T08:05:13;18.50;97.40
3705;DHT22;1868;48.918;9.438;2023-05-14T08:07:43;18.90;97.40
3705;DHT22;1868;48.918;9.438;2023-05-14T08:10:12;19.10;97.40
3705;DHT22;1868;48.918;9.438;2023-05-14T08:12:42;19.20;97.40
3705;DHT22;1868;48.918;9.438;2023-05-14T08:15:11;19.40;97.40
3705;DHT22;1868;48.918;9.438;2023-05-14T08:17:40;19.60;97.40
3705;DHT22;1868;48.918;9.438;2023-05-14T08:20:10;19.80;97.40
3705;DHT22;1868;48.918;9.438;2023-05-14T08:22:39;20.00;97.40
3705;DHT22;1868;48.918;9.438;2023-05-14T08:25:08;20.30;97.40
3705;DHT22;1868;48.918;9.438;2023-05-14T08:27:38;20.40;97.40
3705;DHT22;1868;48.918;9.438;2023-05-14T08:30:08;20.30;97.40
3705;DHT22;1868;48.918;9.438;2023-05-14T08:32:37;20.60;97.40
3705;DHT22;1868;48.918;9.438;2023-05-14T08:35:07;20.90;97.40
3705;DHT22;1868;48.918;9.438;2023-05-14T08:37:37;21.10;97.40
3705;DHT22;1868;48.918;9.438;2023-05-14T08:40:07;21.40;97.40
3705;DHT22;1868;48.918;9.438;2023-05-14T08:42:39;21.90;97.40
3705;DHT22;1868;48.918;9.438;2023-05-14T08:45:16;22.30;95.70
3705;DHT22;1868;48.918;9.438;2023-05-14T08:47:47;22.30;95.40
3705;DHT22;1868;48.918;9.438;2023-05-14T08:50:17;22.30;95.50
3705;DHT22;1868;48.918;9.438;2023-05-14T08:52:49;22.00;92.70
3705;DHT22;1868;48.918;9.438;2023-05-14T08:55:20;22.20;93.00
3705;DHT22;1868;48.918;9.438;2023-05-14T08:57:53;22.40;93.10
3705;DHT22;1868;48.918;9.438;2023-05-14T09:00:22;22.40;91.90
3705;DHT22;1868;48.918;9.438;2023-05-14T09:02:52;22.20;91.20
3705;DHT22;1868;48.918;9.438;2023-05-14T09:05:22;22.30;93.30
3705;DHT22;1868;48.918;9.438;2023-05-14T09:07:52;22.00;92.90
3705;DHT22;1868;48.918;9.438;2023-05-14T09:10:21;21.80;93.40
3705;DHT22;1868;48.918;9.438;2023-05-14T09:12:50;21.80;93.90
3705;DHT22;1868;48.918;9.438;2023-05-14T09:15:21;21.70;95.50
3705;DHT22;1868;48.918;9.438;2023-05-14T09:17:51;21.50;95.00
3705;DHT22;1868;48.918;9.438;2023-05-14T09:20:20;21.30;95.10
3705;DHT22;1868;48.918;9.438;2023-05-14T09:22:52;21.10;96.00
3705;DHT22;1868;48.918;9.438;2023-05-14T09:25:26;20.90;97.40
3705;DHT22;1868;48.918;9.438;2023-05-14T09:27:55;20.70;97.20
3705;DHT22;1868;48.918;9.438;2023-05-14T09:30:26;20.60;95.90
3705;DHT22;1868;48.918;9.438;2023-05-14T09:32:56;20.20;97.40
3705;DHT22;1868;48.918;9.438;2023-05-14T09:35:25;20.10;97.40
3705;DHT22;1868;48.918;9.438;2023-05-14T09:37:54;20.10;97.40
3705;DHT22;1868;48.918;9.438;2023-05-14T09:40:23;20.10;97.40
3705;DHT22;1868;48.918;9.438;2023-05-14T09:42:53;20.10;97.40
3705;DHT22;1868;48.918;9.438;2023-05-14T09:45:23;20.00;97.40
3705;DHT22;1868;48.918;9.438;2023-05-14T09:47:53;19.90;97.40
3705;DHT22;1868;48.918;9.438;2023-05-14T09:50:22;19.80;97.40
3705;DHT22;1868;48.918;9.438;2023-05-14T09:52:54;19.70;97.40
3705;DHT22;1868;48.918;9.438;2023-05-14T09:55:23;19.70;97.40
3705;DHT22;1868;48.918;9.438;2023-05-14T09:57:53;19.70;97.40
3705;DHT22;1868;48.918;9.438;2023-05-14T10:00:24;19.60;97.40
3705;DHT22;1868;48.918;9.438;2023-05-14T10:02:57;19.30;97.40
3705;DHT22;1868;48.918;9.438;2023-05-14T10:05:27;19.20;97.40
3705;DHT22;1868;48.918;9.438;2023-05-14T10:07:57;19.10;97.40
3705;DHT22;1868;48.918;9.438;2023-05-14T10:10:28;19.10;97.40
3705;DHT22;1868;48.918;9.438;2023-05-14T10:13:01;19.10;97.40
3705;DHT22;1868;48.918;9.438;2023-05-14T10:15:36;19.10;97.40
3705;DHT22;1868;48.918;9.438;2023-05-14T10:18:11;19.20;97.40
3705;DHT22;1868;48.918;9.438;2023-05-14T10:20:47;19.20;97.40
3705;DHT22;1868;48.918;9.438;2023-05-14T10:23:16;19.20;97.40
3705;DHT22;1868;48.918;9.438;2023-05-14T10:25:47;19.30;97.40
3705;DHT22;1868;48.918;9.438;2023-05-14T10:28:16;19.40;97.40
3705;DHT22;1868;48.918;9.438;2023-05-14T10:30:45;19.50;97.40
3705;DHT22;1868;48.918;9.438;2023-05-14T10:33:16;19.60;97.40
3705;DHT22;1868;48.918;9.438;2023-05-14T10:35:57;19.70;97.40
3705;DHT22;1868;48.918;9.438;2023-05-14T10:38:32;19.80;97.40
3705;DHT22;1868;48.918;9.438;2023-05-14T10:41:04;19.80;97.40
3705;DHT22;1868;48.918;9.438;2023-05-14T10:43:36;19.80;97.40
3705;DHT22;1868;48.918;9.438;2023-05-14T10:46:09;19.80;97.40
3705;DHT22;1868;48.918;9.438;2023-05-14T10:48:42;19.90;97.40
3705;DHT22;1868;48.918;9.438;2023-05-14T10:51:12;19.80;97.40
3705;DHT22;1868;48.918;9.438;2023-05-14T10:53:44;19.90;97.40
3705;DHT22;1868;48.918;9.438;2023-05-14T10:56:13;19.90;97.40
3705;DHT22;1868;48.918;9.438;2023-05-14T10:58:43;20.00;97.40
3705;DHT22;1868;48.918;9.438;2023-05-14T11:01:13;20.10;97.20
3705;DHT22;1868;48.918;9.438;2023-05-14T11:03:44;20.20;97.10
3705;DHT22;1868;48.918;9.438;2023-05-14T11:06:14;20.20;96.90
3705;DHT22;1868;48.918;9.438;2023-05-14T11:08:44;20.30;96.40
3705;DHT22;1868;48.918;9.438;2023-05-14T11:11:13;20.30;95.30
3705;DHT22;1868;48.918;9.438;2023-05-14T11:13:42;20.30;96.50
3705;DHT22;1868;48.918;9.438;2023-05-14T11:16:12;20.40;95.90
3705;DHT22;1868;48.918;9.438;2023-05-14T11:19:00;20.60;95.50
3705;DHT22;1868;48.918;9.438;2023-05-14T11:21:30;20.70;95.80
3705;DHT22;1868;48.918;9.438;2023-05-14T11:24:00;20.90;95.00
3705;DHT22;1868;48.918;9.438;2023-05-14T11:26:32;21.20;94.90
3705;DHT22;1868;48.918;9.438;2023-05-14T11:29:01;21.40;93.90
3705;DHT22;1868;48.918;9.438;2023-05-14T11:31:32;22.10;93.40
3705;DHT22;1868;48.918;9.438;2023-05-14T11:34:02;22.20;92.50
3705;DHT22;1868;48.918;9.438;2023-05-14T11:36:35;22.50;92.20
3705;DHT22;1868;48.918;9.438;2023-05-14T11:39:04;23.30;91.20
3705;DHT22;1868;48.918;9.438;2023-05-14T11:41:33;24.10;88.40
3705;DHT22;1868;48.918;9.438;2023-05-14T11:44:03;25.30;83.40
3705;DHT22;1868;48.918;9.438;2023-05-14T11:46:34;25.50;81.00
3705;DHT22;1868;48.918;9.438;2023-05-14T11:49:05;25.00;78.20
3705;DHT22;1868;48.918;9.438;2023-05-14T11:51:35;24.80;79.10
3705;DHT22;1868;48.918;9.438;2023-05-14T11:54:05;24.80;78.90
3705;DHT22;1868;48.918;9.438;2023-05-14T11:56:36;24.90;80.60
3705;DHT22;1868;48.918;9.438;2023-05-14T11:59:05;25.80;78.00
3705;DHT22;1868;48.918;9.438;2023-05-14T12:01:35;26.00;76.10
3705;DHT22;1868;48.918;9.438;2023-05-14T12:04:07;25.30;80.00
3705;DHT22;1868;48.918;9.438;2023-05-14T12:06:38;25.70;79.30
3705;DHT22;1868;48.918;9.438;2023-05-14T12:09:11;26.60;73.50
3705;DHT22;1868;48.918;9.438;2023-05-14T12:11:42;27.30;73.30
3705;DHT22;1868;48.918;9.438;2023-05-14T12:14:14;28.00;69.80
3705;DHT22;1868;48.918;9.438;2023-05-14T12:16:44;27.80;70.20
3705;DHT22;1868;48.918;9.438;2023-05-14T12:19:16;26.90;68.70
3705;DHT22;1868;48.918;9.438;2023-05-14T12:21:46;26.40;71.80
3705;DHT22;1868;48.918;9.438;2023-05-14T12:24:18;25.60;72.00
3705;DHT22;1868;48.918;9.438;2023-05-14T12:26:50;25.40;71.50
3705;DHT22;1868;48.918;9.438;2023-05-14T12:29:21;25.80;73.90
3705;DHT22;1868;48.918;9.438;2023-05-14T12:31:55;25.50;75.00
3705;DHT22;1868;48.918;9.438;2023-05-14T12:34:27;25.20;76.10
3705;DHT22;1868;48.918;9.438;2023-05-14T12:36:55;24.90;74.60
3705;DHT22;1868;48.918;9.438;2023-05-14T12:39:25;24.70;77.40
3705;DHT22;1868;48.918;9.438;2023-05-14T12:41:56;24.60;78.00
3705;DHT22;1868;48.918;9.438;2023-05-14T12:44:24;24.30;78.90
3705;DHT22;1868;48.918;9.438;2023-05-14T12:46:53;23.80;79.10
3705;DHT22;1868;48.918;9.438;2023-05-14T12:49:23;23.40;80.80
3705;DHT22;1868;48.918;9.438;2023-05-14T12:51:54;23.00;81.70
3705;DHT22;1868;48.918;9.438;2023-05-14T12:54:43;22.70;86.40
3705;DHT22;1868;48.918;9.438;2023-05-14T12:57:12;22.60;86.90
3705;DHT22;1868;48.918;9.438;2023-05-14T12:59:42;22.90;83.20
3705;DHT22;1868;48.918;9.438;2023-05-14T13:02:10;23.80;80.00
3705;DHT22;1868;48.918;9.438;2023-05-14T13:04:43;24.70;77.40
3705;DHT22;1868;48.918;9.438;2023-05-14T13:07:14;25.30;75.90
3705;DHT22;1868;48.918;9.438;2023-05-14T13:09:44;25.70;75.40
3705;DHT22;1868;48.918;9.438;2023-05-14T13:12:13;26.10;73.90
3705;DHT22;1868;48.918;9.438;2023-05-14T13:14:42;25.90;72.60
3705;DHT22;1868;48.918;9.438;2023-05-14T13:17:12;25.90;74.80
3705;DHT22;1868;48.918;9.438;2023-05-14T13:19:42;26.00;75.20
3705;DHT22;1868;48.918;9.438;2023-05-14T13:22:14;25.70;70.90
3705;DHT22;1868;48.918;9.438;2023-05-14T13:24:46;25.20;71.80
3705;DHT22;1868;48.918;9.438;2023-05-14T13:27:15;24.70;75.20
3705;DHT22;1868;48.918;9.438;2023-05-14T13:29:43;24.00;76.90
3705;DHT22;1868;48.918;9.438;2023-05-14T13:32:12;23.60;78.60
3705;DHT22;1868;48.918;9.438;2023-05-14T13:34:41;23.30;81.90
3705;DHT22;1868;48.918;9.438;2023-05-14T13:37:10;22.90;82.10
3705;DHT22;1868;48.918;9.438;2023-05-14T13:39:41;22.60;83.00
3705;DHT22;1868;48.918;9.438;2023-05-14T13:42:10;22.10;84.10
3705;DHT22;1868;48.918;9.438;2023-05-14T13:44:40;21.90;86.00
3705;DHT22;1868;48.918;9.438;2023-05-14T13:47:08;21.70;86.60
3705;DHT22;1868;48.918;9.438;2023-05-14T13:49:40;21.40;87.50
3705;DHT22;1868;48.918;9.438;2023-05-14T13:52:10;21.20;88.40
3705;DHT22;1868;48.918;9.438;2023-05-14T13:54:38;20.90;88.60
3705;DHT22;1868;48.918;9.438;2023-05-14T13:57:09;20.90;89.70
3705;DHT22;1868;48.918;9.438;2023-05-14T13:59:38;20.80;90.40
3705;DHT22;1868;48.918;9.438;2023-05-14T14:02:08;20.70;91.00
3705;DHT22;1868;48.918;9.438;2023-05-14T14:04:37;20.70;91.60
3705;DHT22;1868;48.918;9.438;2023-05-14T14:07:08;20.70;92.10
3705;DHT22;1868;48.918;9.438;2023-05-14T14:09:36;20.80;89.70
3705;DHT22;1868;48.918;9.438;2023-05-14T14:12:05;21.00;89.70
3705;DHT22;1868;48.918;9.438;2023-05-14T14:14:40;21.10;89.40
3705;DHT22;1868;48.918;9.438;2023-05-14T14:17:09;21.30;88.60
3705;DHT22;1868;48.918;9.438;2023-05-14T14:19:39;21.50;89.60
3705;DHT22;1868;48.918;9.438;2023-05-14T14:22:08;21.80;90.60
3705;DHT22;1868;48.918;9.438;2023-05-14T14:24:38;22.00;89.70
3705;DHT22;1868;48.918;9.438;2023-05-14T14:27:08;22.20;86.80
3705;DHT22;1868;48.918;9.438;2023-05-14T14:29:36;22.10;87.30
3705;DHT22;1868;48.918;9.438;2023-05-14T14:32:07;21.80;85.50
3705;DHT22;1868;48.918;9.438;2023-05-14T14:34:36;21.90;87.50
3705;DHT22;1868;48.918;9.438;2023-05-14T14:37:08;21.90;88.40
3705;DHT22;1868;48.918;9.438;2023-05-14T14:39:38;21.60;84.50
3705;DHT22;1868;48.918;9.438;2023-05-14T14:42:07;21.20;88.10
3705;DHT22;1868;48.918;9.438;2023-05-14T14:44:36;21.00;88.10
3705;DHT22;1868;48.918;9.438;2023-05-14T14:47:07;20.80;88.20
3705;DHT22;1868;48.918;9.438;2023-05-14T14:49:37;20.70;90.60
3705;DHT22;1868;48.918;9.438;2023-05-14T14:52:07;20.60;89.20
3705;DHT22;1868;48.918;9.438;2023-05-14T14:54:37;20.60;91.20
3705;DHT22;1868;48.918;9.438;2023-05-14T14:57:06;20.80;91.00
3705;DHT22;1868;48.918;9.438;2023-05-14T14:59:35;21.10;90.90
3705;DHT22;1868;48.918;9.438;2023-05-14T15:02:09;21.40;89.70
3705;DHT22;1868;48.918;9.438;2023-05-14T15:04:38;21.50;90.40
3705;DHT22;1868;48.918;9.438;2023-05-14T15:07:06;21.50;87.90
3705;DHT22;1868;48.918;9.438;2023-05-14T15:09:35;21.60;87.30
3705;DHT22;1868;48.918;9.438;2023-05-14T15:12:06;21.70;87.50
3705;DHT22;1868;48.918;9.438;2023-05-14T15:14:36;21.80;87.10
3705;DHT22;1868;48.918;9.438;2023-05-14T15:17:07;22.00;86.20
3705;DHT22;1868;48.918;9.438;2023-05-14T15:19:37;21.90;87.30
3705;DHT22;1868;48.918;9.438;2023-05-14T15:22:07;21.80;88.20
3705;DHT22;1868;48.918;9.438;2023-05-14T15:24:36;21.70;87.90
3705;DHT22;1868;48.918;9.438;2023-05-14T15:27:05;21.60;86.40
3705;DHT22;1868;48.918;9.438;2023-05-14T15:29:34;21.40;88.40
3705;DHT22;1868;48.918;9.438;2023-05-14T15:32:04;21.30;89.00
3705;DHT22;1868;48.918;9.438;2023-05-14T15:34:35;21.10;90.30
3705;DHT22;1868;48.918;9.438;2023-05-14T15:37:05;21.00;90.50
3705;DHT22;1868;48.918;9.438;2023-05-14T15:39:35;21.00;90.10
3705;DHT22;1868;48.918;9.438;2023-05-14T15:42:06;20.90;90.90
3705;DHT22;1868;48.918;9.438;2023-05-14T15:44:36;20.80;91.30
3705;DHT22;1868;48.918;9.438;2023-05-14T15:47:05;20.80;90.90
3705;DHT22;1868;48.918;9.438;2023-05-14T15:49:35;20.60;90.30
3705;DHT22;1868;48.918;9.438;2023-05-14T15:52:04;20.40;91.20
3705;DHT22;1868;48.918;9.438;2023-05-14T15:54:33;20.30;91.20
3705;DHT22;1868;48.918;9.438;2023-05-14T15:57:03;20.30;90.90
3705;DHT22;1868;48.918;9.438;2023-05-14T15:59:32;20.20;90.20
3705;DHT22;1868;48.918;9.438;2023-05-14T16:02:01;20.20;91.20
3705;DHT22;1868;48.918;9.438;2023-05-14T16:04:30;20.20;90.20
3705;DHT22;1868;48.918;9.438;2023-05-14T16:07:02;20.20;91.10
3705;DHT22;1868;48.918;9.438;2023-05-14T16:09:35;20.20;90.90
3705;DHT22;1868;48.918;9.438;2023-05-14T16:12:06;20.20;90.90
3705;DHT22;1868;48.918;9.438;2023-05-14T16:14:35;20.10;91.50
3705;DHT22;1868;48.918;9.438;2023-05-14T16:17:07;20.10;91.60
3705;DHT22;1868;48.918;9.438;2023-05-14T16:19:39;20.00;91.80
3705;DHT22;1868;48.918;9.438;2023-05-14T16:22:09;19.80;93.00